createdAt,value
2022-10-20T00:00:32.487Z,7.12
2022-10-20T00:02:58.883Z,7.13
2022-10-20T00:05:25.198Z,7.14
2022-10-20T00:07:51.538Z,7.16
2022-10-20T00:10:17.868Z,7.16
2022-10-20T00:12:44.204Z,7.18
2022-10-20T00:15:10.998Z,7.16
2022-10-20T00:17:37.348Z,7.15
2022-10-20T00:20:04.356Z,7.13
2022-10-20T00:22:32.046Z,7.10
2022-10-20T00:24:58.406Z,7.09
2022-10-20T00:27:24.725Z,7.11
2022-10-20T00:29:51.057Z,7.12
2022-10-20T00:32:17.659Z,7.13
2022-10-20T00:34:43.951Z,7.17
2022-10-20T00:37:10.378Z,7.17
2022-10-20T00:39:36.757Z,7.21
2022-10-20T00:42:04.184Z,7.22
2022-10-20T00:44:56.957Z,7.21
2022-10-20T00:47:29.266Z,7.20
2022-10-20T00:49:59.281Z,7.20
2022-10-20T00:52:25.615Z,7.21
2022-10-20T00:54:52.229Z,7.19
2022-10-20T00:57:18.660Z,7.16
2022-10-20T00:59:45.179Z,7.12
2022-10-20T01:02:11.780Z,7.14
2022-10-20T01:04:38.179Z,7.15
2022-10-20T01:07:05.425Z,7.12
2022-10-20T01:09:32.235Z,7.07
2022-10-20T01:12:26.498Z,7.06
2022-10-20T01:15:09.087Z,7.07
2022-10-20T01:18:04.634Z,7.07
2022-10-20T01:20:45.140Z,7.06
2022-10-20T01:23:14.372Z,7.03
2022-10-20T01:25:57.479Z,7.06
2022-10-20T01:28:51.113Z,7.04
2022-10-20T01:31:26.306Z,7.00
2022-10-20T01:34:08.437Z,6.94
2022-10-20T01:36:46.503Z,6.91
2022-10-20T01:39:19.050Z,6.90
2022-10-20T01:41:58.899Z,6.90
2022-10-20T01:44:27.858Z,6.91
2022-10-20T01:46:57.080Z,6.90
2022-10-20T01:49:24.773Z,6.90
2022-10-20T01:51:51.215Z,6.92
2022-10-20T01:54:29.407Z,6.95
2022-10-20T01:57:09.549Z,7.03
2022-10-20T02:00:01.229Z,6.99
2022-10-20T02:02:49.056Z,6.95
2022-10-20T02:05:43.573Z,6.93
2022-10-20T02:08:37.617Z,6.94
2022-10-20T02:11:06.443Z,6.96
2022-10-20T02:13:36.945Z,6.94
2022-10-20T02:16:11.475Z,6.91
2022-10-20T02:18:42.400Z,6.90
2022-10-20T02:21:10.143Z,6.88
2022-10-20T02:23:39.284Z,6.87
2022-10-20T02:26:09.266Z,6.82
2022-10-20T02:28:39.146Z,6.79
2022-10-20T02:31:05.804Z,6.74
2022-10-20T02:33:33.595Z,6.72
2022-10-20T02:36:03.671Z,6.69
2022-10-20T02:38:29.971Z,6.70
2022-10-20T02:40:56.281Z,6.70
2022-10-20T02:43:22.712Z,6.72
2022-10-20T02:45:49.054Z,6.68
2022-10-20T02:48:15.399Z,6.70
2022-10-20T02:50:41.715Z,6.74
2022-10-20T02:53:08.058Z,6.79
2022-10-20T02:55:34.403Z,6.82
2022-10-20T02:58:01.064Z,6.87
2022-10-20T03:00:30.939Z,6.87
2022-10-20T03:02:57.542Z,6.89
2022-10-20T03:05:23.883Z,6.89
2022-10-20T03:07:50.296Z,6.94
2022-10-20T03:10:16.660Z,6.97
2022-10-20T03:12:42.994Z,7.00
2022-10-20T03:15:10.007Z,7.00
2022-10-20T03:17:36.534Z,7.00
2022-10-20T03:20:05.127Z,7.01
2022-10-20T03:22:31.462Z,7.02
2022-10-20T03:24:57.855Z,7.06
2022-10-20T03:27:24.167Z,7.05
2022-10-20T03:29:50.478Z,7.04
2022-10-20T03:32:16.957Z,7.08
2022-10-20T03:34:43.314Z,7.11
2022-10-20T03:37:09.620Z,7.12
2022-10-20T03:39:35.992Z,7.14
2022-10-20T03:42:02.312Z,7.15
2022-10-20T03:44:28.620Z,7.13
2022-10-20T03:46:54.930Z,7.13
2022-10-20T03:49:21.240Z,7.11
2022-10-20T03:51:47.601Z,7.07
2022-10-20T03:54:13.915Z,7.08
2022-10-20T03:56:40.355Z,7.09
2022-10-20T03:59:06.689Z,7.10
2022-10-20T04:01:36.631Z,7.10
2022-10-20T04:04:03.169Z,7.11
2022-10-20T04:06:29.603Z,7.10
2022-10-20T04:08:55.957Z,7.09
2022-10-20T04:11:22.310Z,7.09
2022-10-20T04:13:48.657Z,7.10
2022-10-20T04:16:15.007Z,7.10
2022-10-20T04:18:41.367Z,7.09
2022-10-20T04:21:07.746Z,7.15
2022-10-20T04:23:34.077Z,7.15
2022-10-20T04:26:00.399Z,7.17
2022-10-20T04:28:26.716Z,7.22
2022-10-20T04:30:53.023Z,7.23
2022-10-20T04:33:19.351Z,7.27
2022-10-20T04:35:45.910Z,7.31
2022-10-20T04:38:12.253Z,7.34
2022-10-20T04:40:38.620Z,7.36
2022-10-20T04:43:04.983Z,7.40
2022-10-20T04:45:31.346Z,7.47
2022-10-20T04:47:57.653Z,7.51
2022-10-20T04:50:23.987Z,7.56
2022-10-20T04:52:51.266Z,7.64
2022-10-20T04:55:17.695Z,7.65
2022-10-20T04:57:43.987Z,7.68
2022-10-20T05:00:10.752Z,7.70
2022-10-20T05:02:37.095Z,7.72
2022-10-20T05:05:04.853Z,7.75
2022-10-20T05:07:31.266Z,7.78
2022-10-20T05:09:57.581Z,7.81
2022-10-20T05:12:23.926Z,7.83
2022-10-20T05:14:50.257Z,7.84
2022-10-20T05:17:16.572Z,7.86
2022-10-20T05:19:42.926Z,7.87
2022-10-20T05:22:09.600Z,7.88
2022-10-20T05:24:35.937Z,7.87
2022-10-20T05:27:02.280Z,7.87
2022-10-20T05:29:28.652Z,7.87
2022-10-20T05:31:54.958Z,7.88
2022-10-20T05:34:21.296Z,7.87
2022-10-20T05:36:47.672Z,7.86
2022-10-20T05:39:14.026Z,7.80
2022-10-20T05:41:40.392Z,7.75
2022-10-20T05:44:11.088Z,7.73
2022-10-20T05:46:41.048Z,7.72
2022-10-20T05:49:11.103Z,7.75
2022-10-20T05:51:37.482Z,7.78
2022-10-20T05:54:04.110Z,7.80
2022-10-20T05:56:31.580Z,7.83
2022-10-20T05:58:58.361Z,7.82
2022-10-20T06:01:27.547Z,7.82
2022-10-20T06:03:59.617Z,7.85
2022-10-20T06:06:30.841Z,7.87
2022-10-20T06:08:59.345Z,7.93
2022-10-20T06:11:26.436Z,7.96
2022-10-20T06:13:53.374Z,8.01
2022-10-20T06:16:22.743Z,8.07
2022-10-20T06:18:49.505Z,8.08
2022-10-20T06:21:18.894Z,8.11
2022-10-20T06:23:45.540Z,8.13
2022-10-20T06:26:14.248Z,8.17
2022-10-20T06:28:41.294Z,8.23
2022-10-20T06:31:19.106Z,8.29
2022-10-20T06:33:46.223Z,8.33
2022-10-20T06:36:13.213Z,8.39
2022-10-20T06:38:40.057Z,8.52
2022-10-20T06:41:14.162Z,8.58
2022-10-20T06:43:40.821Z,8.62
2022-10-20T06:46:11.472Z,8.70
2022-10-20T06:48:37.844Z,8.81
2022-10-20T06:51:12.014Z,8.96
2022-10-20T06:53:42.608Z,9.05
2022-10-20T06:56:15.013Z,9.11
2022-10-20T06:58:42.900Z,9.17
2022-10-20T07:01:17.684Z,9.22
2022-10-20T07:03:46.369Z,9.27
2022-10-20T07:06:15.402Z,9.29
2022-10-20T07:08:42.000Z,9.33
2022-10-20T07:11:12.091Z,9.35
2022-10-20T07:13:39.487Z,9.40
2022-10-20T07:16:07.846Z,9.41
2022-10-20T07:18:36.020Z,9.46
2022-10-20T07:21:05.823Z,9.49
2022-10-20T07:23:33.680Z,9.49
2022-10-20T07:26:21.372Z,9.53
2022-10-20T07:28:55.913Z,9.60
2022-10-20T07:31:28.518Z,9.67
2022-10-20T07:34:06.972Z,9.72
2022-10-20T07:36:42.078Z,9.76
2022-10-20T07:39:08.812Z,9.82
2022-10-20T07:41:37.840Z,9.87
2022-10-20T07:44:04.787Z,9.91
2022-10-20T07:46:31.320Z,9.96
2022-10-20T07:49:11.464Z,9.99
2022-10-20T07:51:43.993Z,10.03
2022-10-20T07:54:11.874Z,10.05
2022-10-20T07:56:40.837Z,10.09
2022-10-20T07:59:09.298Z,10.13
2022-10-20T08:01:36.265Z,10.18
2022-10-20T08:04:02.782Z,10.20
2022-10-20T08:06:29.163Z,10.26
2022-10-20T08:08:55.579Z,10.29
2022-10-20T08:11:22.579Z,10.36
2022-10-20T08:13:49.228Z,10.40
2022-10-20T08:16:19.043Z,10.47
2022-10-20T08:18:52.957Z,10.56
2022-10-20T08:21:20.516Z,10.67
2022-10-20T08:23:48.134Z,10.75
2022-10-20T08:26:22.232Z,10.90
2022-10-20T08:28:49.878Z,11.10
2022-10-20T08:31:16.292Z,11.25
2022-10-20T08:33:42.744Z,11.41
2022-10-20T08:36:12.435Z,11.45
2022-10-20T08:38:39.770Z,11.56
2022-10-20T08:41:16.614Z,11.62
2022-10-20T08:43:43.427Z,11.71
2022-10-20T08:46:14.711Z,11.88
2022-10-20T08:48:42.529Z,12.14
2022-10-20T08:51:24.076Z,12.34
2022-10-20T08:53:53.849Z,12.57
2022-10-20T08:56:23.047Z,12.79
2022-10-20T08:58:49.631Z,12.75
2022-10-20T09:01:20.759Z,12.57
2022-10-20T09:03:51.170Z,12.45
2022-10-20T09:06:18.107Z,12.24
2022-10-20T09:08:44.974Z,12.12
2022-10-20T09:11:18.527Z,12.00
2022-10-20T09:13:45.369Z,12.01
2022-10-20T09:16:40.417Z,12.00
2022-10-20T09:19:22.469Z,12.04
2022-10-20T09:21:53.183Z,11.93
2022-10-20T09:24:22.230Z,11.89
2022-10-20T09:26:58.718Z,11.89
2022-10-20T09:29:38.055Z,11.84
2022-10-20T09:32:56.256Z,11.89
2022-10-20T09:35:23.772Z,11.88
2022-10-20T09:38:02.063Z,11.88
2022-10-20T09:40:29.644Z,11.93
2022-10-20T09:43:00.758Z,11.97
2022-10-20T09:45:30.942Z,12.05
2022-10-20T09:48:16.919Z,12.06
2022-10-20T09:50:48.470Z,12.08
2022-10-20T09:53:19.726Z,12.09
2022-10-20T09:55:50.826Z,12.09
2022-10-20T09:58:23.150Z,12.08
2022-10-20T10:01:01.857Z,12.09
2022-10-20T10:03:28.986Z,12.11
2022-10-20T10:06:00.383Z,12.09
2022-10-20T10:08:44.686Z,12.10
2022-10-20T10:11:16.940Z,12.14
2022-10-20T10:13:46.113Z,12.21
2022-10-20T10:16:15.302Z,12.24
2022-10-20T10:18:48.488Z,12.30
2022-10-20T10:21:17.293Z,12.32
2022-10-20T10:23:50.996Z,12.34
2022-10-20T10:26:34.781Z,12.34
2022-10-20T10:29:01.191Z,12.35
2022-10-20T10:31:27.648Z,12.35
2022-10-20T10:34:02.400Z,12.37
2022-10-20T10:36:36.501Z,12.35
2022-10-20T10:39:06.826Z,12.37
2022-10-20T10:41:55.348Z,12.38
2022-10-20T10:44:54.983Z,12.36
2022-10-20T10:48:06.635Z,12.35
2022-10-20T10:51:02.424Z,12.35
2022-10-20T10:54:06.944Z,12.32
2022-10-20T10:56:50.498Z,12.27
2022-10-20T10:59:27.511Z,12.20
2022-10-20T11:02:18.440Z,12.16
2022-10-20T11:05:09.242Z,12.14
2022-10-20T11:08:22.393Z,12.08
2022-10-20T11:11:08.442Z,12.03
2022-10-20T11:13:40.822Z,12.00
2022-10-20T11:16:31.521Z,11.99
2022-10-20T11:19:19.593Z,12.00
2022-10-20T11:22:14.715Z,11.98
2022-10-20T11:25:12.518Z,11.98
2022-10-20T11:27:39.167Z,12.00
2022-10-20T11:30:21.185Z,12.03
2022-10-20T11:33:05.658Z,12.07
2022-10-20T11:35:39.960Z,12.10
2022-10-20T11:38:26.664Z,12.14
2022-10-20T11:41:00.975Z,12.16
2022-10-20T11:43:45.182Z,12.19
2022-10-20T11:46:20.488Z,12.23
2022-10-20T11:48:52.922Z,12.25
2022-10-20T11:51:31.517Z,12.31
2022-10-20T11:54:16.843Z,12.33
2022-10-20T11:57:08.057Z,12.33
2022-10-20T12:00:04.830Z,12.35
2022-10-20T12:02:52.983Z,12.38
2022-10-20T12:05:22.534Z,12.37
2022-10-20T12:08:29.295Z,12.37
2022-10-20T12:11:11.651Z,12.34
2022-10-20T12:13:56.651Z,12.34
2022-10-20T12:16:54.096Z,12.33
2022-10-20T12:19:29.874Z,12.30
2022-10-20T12:22:16.013Z,12.30
2022-10-20T12:24:49.920Z,12.33
2022-10-20T12:27:18.884Z,12.33
2022-10-20T12:29:51.321Z,12.37
2022-10-20T12:32:24.416Z,12.40
2022-10-20T12:34:50.751Z,12.45
2022-10-20T12:37:26.837Z,12.51
2022-10-20T12:39:55.351Z,12.59
2022-10-20T12:42:33.449Z,12.71
2022-10-20T12:45:19.699Z,12.79
2022-10-20T12:48:01.318Z,12.80
2022-10-20T12:50:41.133Z,12.79
2022-10-20T12:53:18.268Z,12.77
2022-10-20T12:55:48.025Z,12.71
2022-10-20T12:58:17.443Z,12.70
2022-10-20T13:00:46.838Z,12.74
2022-10-20T13:03:49.227Z,12.74
2022-10-20T13:06:24.604Z,12.83
2022-10-20T13:09:02.889Z,12.91
2022-10-20T13:11:41.750Z,12.90
2022-10-20T13:14:19.111Z,12.88
2022-10-20T13:17:05.940Z,12.99
2022-10-20T13:20:01.303Z,13.13
2022-10-20T13:22:37.690Z,13.15
2022-10-20T13:25:12.051Z,13.24
2022-10-20T13:27:39.039Z,13.41
2022-10-20T13:30:10.320Z,13.63
2022-10-20T13:33:01.692Z,13.93
2022-10-20T13:35:42.704Z,14.23
2022-10-20T13:38:28.319Z,14.34
2022-10-20T13:43:57.885Z,14.49
2022-10-20T13:46:48.191Z,14.44
2022-10-20T13:49:48.306Z,14.27
2022-10-20T13:52:18.672Z,14.19
2022-10-20T13:54:48.894Z,14.19
2022-10-20T13:57:28.895Z,14.26
2022-10-20T14:00:00.949Z,14.27
2022-10-20T14:02:32.670Z,14.26
2022-10-20T14:05:03.596Z,14.21
2022-10-20T14:07:41.860Z,14.17
2022-10-20T14:10:35.399Z,14.19
2022-10-20T14:13:03.515Z,14.15
2022-10-20T14:15:33.072Z,14.17
2022-10-20T14:18:03.197Z,14.20
2022-10-20T14:20:31.758Z,14.23
2022-10-20T14:23:00.307Z,14.32
2022-10-20T14:25:27.802Z,14.40
2022-10-20T14:27:56.208Z,14.45
2022-10-20T14:30:23.952Z,14.45
2022-10-20T14:32:51.203Z,14.43
2022-10-20T14:35:33.085Z,14.45
2022-10-20T14:38:04.485Z,14.49
2022-10-20T14:40:34.383Z,14.54
2022-10-20T14:43:06.327Z,14.56
2022-10-20T14:48:12.665Z,14.63
2022-10-20T14:50:41.061Z,14.64
2022-10-20T14:53:22.531Z,14.61
2022-10-20T14:55:48.902Z,14.53
2022-10-20T14:59:01.076Z,14.52
2022-10-20T15:01:32.433Z,14.51
2022-10-20T15:04:16.643Z,14.51
2022-10-20T15:06:44.192Z,14.51
2022-10-20T15:09:19.882Z,14.49
2022-10-20T15:11:46.498Z,14.49
2022-10-20T15:14:16.008Z,14.54
2022-10-20T15:16:47.766Z,14.56
2022-10-20T15:19:25.953Z,14.58
2022-10-20T15:21:59.662Z,14.58
2022-10-20T15:24:26.640Z,14.58
2022-10-20T15:26:52.984Z,14.55
2022-10-20T15:29:19.647Z,14.54
2022-10-20T15:31:45.996Z,14.57
2022-10-20T15:34:12.364Z,14.51
2022-10-20T15:36:41.995Z,14.46
2022-10-20T15:39:09.037Z,14.42
2022-10-20T15:41:36.182Z,14.34
2022-10-20T15:44:22.831Z,14.28
2022-10-20T15:46:53.420Z,14.21
2022-10-20T15:49:20.501Z,14.17
2022-10-20T15:51:48.219Z,14.13
2022-10-20T15:54:20.241Z,14.09
2022-10-20T15:56:46.655Z,14.06
2022-10-20T15:59:13.051Z,14.03
2022-10-20T16:01:39.502Z,13.99
2022-10-20T16:04:26.302Z,13.92
2022-10-20T16:06:57.695Z,13.92
2022-10-20T16:09:25.568Z,13.88
2022-10-20T16:11:51.934Z,13.83
2022-10-20T16:14:18.255Z,13.74
2022-10-20T16:16:47.172Z,13.72
2022-10-20T16:19:13.772Z,13.66
2022-10-20T16:21:41.164Z,13.64
2022-10-20T16:24:07.532Z,13.63
2022-10-20T16:26:33.885Z,13.59
2022-10-20T16:29:00.280Z,13.53
2022-10-20T16:31:26.691Z,13.47
2022-10-20T16:33:53.052Z,13.47
2022-10-20T16:36:21.543Z,13.45
2022-10-20T16:38:47.943Z,13.41
2022-10-20T16:41:15.671Z,13.43
2022-10-20T16:43:44.908Z,13.47
2022-10-20T16:46:13.290Z,13.50
2022-10-20T16:48:42.566Z,13.52
2022-10-20T16:51:14.268Z,13.44
2022-10-20T16:53:40.728Z,13.38
2022-10-20T16:56:07.932Z,13.34
2022-10-20T16:58:34.913Z,13.35
2022-10-20T17:01:08.412Z,13.34
2022-10-20T17:03:36.102Z,13.32
2022-10-20T17:06:05.364Z,13.31
2022-10-20T17:08:33.272Z,13.32
2022-10-20T17:11:02.236Z,13.30
2022-10-20T17:13:29.694Z,13.32
2022-10-20T17:15:56.797Z,13.28
2022-10-20T17:18:24.098Z,13.25
2022-10-20T17:20:54.745Z,13.24
2022-10-20T17:23:24.834Z,13.26
2022-10-20T17:25:52.301Z,13.27
2022-10-20T17:28:19.410Z,13.29
2022-10-20T17:30:47.589Z,13.29
2022-10-20T17:33:14.562Z,13.28
2022-10-20T17:35:44.592Z,13.29
2022-10-20T17:38:10.924Z,13.27
2022-10-20T17:40:38.166Z,13.29
2022-10-20T17:43:04.971Z,13.31
2022-10-20T17:45:33.900Z,13.30
2022-10-20T17:48:02.894Z,13.27
2022-10-20T17:50:29.215Z,13.24
2022-10-20T17:52:55.515Z,13.23
2022-10-20T17:55:21.872Z,13.22
2022-10-20T17:57:50.217Z,13.18
2022-10-20T18:00:26.787Z,13.15
2022-10-20T18:02:58.386Z,13.14
2022-10-20T18:05:24.717Z,13.11
2022-10-20T18:07:51.179Z,13.10
2022-10-20T18:10:17.517Z,13.02
2022-10-20T18:12:43.919Z,12.99
2022-10-20T18:15:10.206Z,13.01
2022-10-20T18:17:37.130Z,13.02
2022-10-20T18:20:04.105Z,13.01
2022-10-20T18:22:30.475Z,12.97
2022-10-20T18:24:56.798Z,12.98
2022-10-20T18:27:24.610Z,12.92
2022-10-20T18:29:50.968Z,12.92
2022-10-20T18:32:17.295Z,12.97
2022-10-20T18:34:43.720Z,12.99
2022-10-20T18:37:10.091Z,12.92
2022-10-20T18:39:37.430Z,12.91
2022-10-20T18:42:03.739Z,12.94
2022-10-20T18:47:01.859Z,12.91
2022-10-20T18:49:28.231Z,12.96
2022-10-20T18:51:54.613Z,12.94
2022-10-20T18:54:22.572Z,12.91
2022-10-20T18:56:48.899Z,12.91
2022-10-20T18:59:16.252Z,12.90
2022-10-20T19:01:43.101Z,12.91
2022-10-20T19:04:10.577Z,12.92
2022-10-20T19:06:42.813Z,12.93
2022-10-20T19:09:12.043Z,12.91
2022-10-20T19:11:39.749Z,12.90
2022-10-20T19:14:09.420Z,12.91
2022-10-20T19:16:37.100Z,12.88
2022-10-20T19:19:05.804Z,12.90
2022-10-20T19:21:32.892Z,12.89
2022-10-20T19:24:02.591Z,12.85
2022-10-20T19:26:30.940Z,12.85
2022-10-20T19:29:03.788Z,12.82
2022-10-20T19:31:34.215Z,12.83
2022-10-20T19:34:06.835Z,12.80
2022-10-20T19:36:33.960Z,12.77
2022-10-20T19:39:00.393Z,12.76
2022-10-20T19:41:27.335Z,12.75
2022-10-20T19:43:54.504Z,12.72
2022-10-20T19:46:21.750Z,12.70
2022-10-20T19:48:49.090Z,12.69
2022-10-20T19:51:17.239Z,12.70
2022-10-20T19:53:44.477Z,12.70
2022-10-20T19:56:11.276Z,12.73
2022-10-20T19:58:41.428Z,12.72
2022-10-20T20:01:10.784Z,12.72
2022-10-20T20:03:37.323Z,12.72
2022-10-20T20:06:09.591Z,12.72
2022-10-20T20:08:37.003Z,12.72
2022-10-20T20:11:05.197Z,12.69
2022-10-20T20:13:32.212Z,12.69
2022-10-20T20:16:07.038Z,12.64
2022-10-20T20:18:34.740Z,12.61
2022-10-20T20:21:03.858Z,12.60
2022-10-20T20:23:41.117Z,12.55
2022-10-20T20:26:17.205Z,12.55
2022-10-20T20:28:43.540Z,12.54
2022-10-20T20:31:11.555Z,12.50
2022-10-20T20:33:38.150Z,12.47
2022-10-20T20:36:07.443Z,12.46
2022-10-20T20:38:36.078Z,12.45
2022-10-20T20:41:05.739Z,12.39
2022-10-20T20:43:32.742Z,12.34
2022-10-20T20:46:04.226Z,12.31
2022-10-20T20:48:30.684Z,12.30
2022-10-20T20:50:58.248Z,12.33
2022-10-20T20:53:24.787Z,12.26
2022-10-20T20:55:54.788Z,12.26
2022-10-20T20:58:21.739Z,12.28
2022-10-20T21:00:48.577Z,12.25
2022-10-20T21:03:14.946Z,12.23
2022-10-20T21:05:41.307Z,12.25
2022-10-20T21:08:07.687Z,12.33
2022-10-20T21:10:37.454Z,12.28
2022-10-20T21:13:03.985Z,12.31
2022-10-20T21:15:30.298Z,12.36
2022-10-20T21:17:56.612Z,12.39
2022-10-20T21:20:22.910Z,12.39
2022-10-20T21:22:49.206Z,12.44
2022-10-20T21:25:15.601Z,12.44
2022-10-20T21:27:41.936Z,12.43
2022-10-20T21:30:08.820Z,12.42
2022-10-20T21:32:35.424Z,12.47
2022-10-20T21:35:02.106Z,12.48
2022-10-20T21:37:28.418Z,12.46
2022-10-20T21:39:54.707Z,12.48
2022-10-20T21:42:21.054Z,12.47
2022-10-20T21:44:49.930Z,12.44
2022-10-20T21:47:16.218Z,12.46
2022-10-20T21:49:42.615Z,12.48
2022-10-20T21:52:08.898Z,12.46
2022-10-20T21:54:35.213Z,12.44
2022-10-20T21:57:01.505Z,12.45
2022-10-20T21:59:29.938Z,12.46
2022-10-20T22:01:58.853Z,12.45
2022-10-20T22:04:29.850Z,12.41
2022-10-20T22:06:59.043Z,12.41
2022-10-20T22:09:25.547Z,12.42
2022-10-20T22:11:55.189Z,12.39
2022-10-20T22:14:22.077Z,12.36
2022-10-20T22:16:48.657Z,12.35
2022-10-20T22:19:20.251Z,12.37
2022-10-20T22:21:48.444Z,12.35
2022-10-20T22:24:15.359Z,12.33
2022-10-20T22:26:42.743Z,12.28
2022-10-20T22:29:09.859Z,12.24
2022-10-20T22:31:37.636Z,12.22
2022-10-20T22:34:04.807Z,12.24
2022-10-20T22:36:31.210Z,12.27
2022-10-20T22:38:57.546Z,12.28
2022-10-20T22:41:23.856Z,12.24
2022-10-20T22:43:50.219Z,12.16
2022-10-20T22:46:16.725Z,12.09
2022-10-20T22:48:43.997Z,12.13
2022-10-20T22:51:10.902Z,12.14
2022-10-20T22:53:38.234Z,12.11
2022-10-20T22:56:19.327Z,12.11
2022-10-20T22:58:46.042Z,12.13
2022-10-20T23:01:18.227Z,12.11
2022-10-20T23:03:45.255Z,12.12
2022-10-20T23:06:14.939Z,12.12
2022-10-20T23:08:46.791Z,12.07
2022-10-20T23:11:14.274Z,12.13
2022-10-20T23:13:40.768Z,12.20
2022-10-20T23:16:07.918Z,12.16
2022-10-20T23:18:34.444Z,12.16
2022-10-20T23:21:00.869Z,12.20
2022-10-20T23:23:27.331Z,12.21
2022-10-20T23:25:54.058Z,12.18
2022-10-20T23:28:20.650Z,12.15
2022-10-20T23:30:47.531Z,12.14
2022-10-20T23:33:13.894Z,12.14
2022-10-20T23:35:40.226Z,12.11
2022-10-20T23:38:09.340Z,12.14
2022-10-20T23:40:35.971Z,12.21
2022-10-20T23:43:02.283Z,12.25
2022-10-20T23:45:28.573Z,12.31
2022-10-20T23:47:54.887Z,12.34
2022-10-20T23:50:23.342Z,12.38
2022-10-20T23:52:49.750Z,12.45
2022-10-20T23:55:16.149Z,12.52
2022-10-20T23:57:42.455Z,12.57
